Time;durP1;ratioP1;P1;durP2;ratioP2;P2;SDS_P1;SDS_P2;PMS_P1;PMS_P2;Temp;Humidity;BMP_temperature;BMP_pressure;BME280_temperature;BME280_humidity;BME280_pressure;Samples;Min_cycle;Max_cycle;Signal;HPM_P1;HPM_P2
2023/06/28 00:00:21;;;;;;;16.88;5.18;;;;;;;;;;6172797;28;20047;-50
2023/06/28 00:03:42;;;;;;;13.13;5.07;;;;;;;;;;6173639;28;20072;-49
2023/06/28 00:06:42;;;;;;;8.75;4.47;;;;;;;;;;6171566;28;20043;-51
2023/06/28 00:09:43;;;;;;;11.80;5.05;;;;;;;;;;6173130;28;20089;-52
2023/06/28 00:12:43;;;;;;;10.80;4.60;;;;;;;;;;6171836;28;20074;-49
2023/06/28 00:15:45;;;;;;;10.68;4.72;;;;;;;;;;6177035;28;20057;-50
2023/06/28 00:18:45;;;;;;;13.70;5.03;;;;;;;;;;6175596;28;20561;-52
2023/06/28 00:21:46;;;;;;;10.52;4.43;;;;;;;;;;6174525;28;20058;-49
2023/06/28 00:24:46;;;;;;;11.13;5.35;;;;;;;;;;6171732;28;20050;-48
2023/06/28 00:27:47;;;;;;;10.65;4.85;;;;;;;;;;6173743;28;20081;-49
2023/06/28 00:30:47;;;;;;;10.23;4.63;;;;;;;;;;6173278;28;20046;-49
2023/06/28 00:33:48;;;;;;;11.15;5.25;;;;;;;;;;6170369;28;20502;-52
2023/06/28 00:36:49;;;;;;;11.27;4.85;;;;;;;;;;6174703;28;20077;-49
2023/06/28 00:39:49;;;;;;;10.43;5.47;;;;;;;;;;6170140;28;20046;-48
2023/06/28 00:42:50;;;;;;;10.70;4.80;;;;;;;;;;6172880;28;20043;-54
2023/06/28 00:45:51;;;;;;;11.95;5.63;;;;;;;;;;6171798;28;20045;-50
2023/06/28 00:48:51;;;;;;;12.68;5.97;;;;;;;;;;6171325;28;20039;-50
2023/06/28 00:51:53;;;;;;;13.75;5.30;;;;;;;;;;6167681;28;20154;-49
2023/06/28 00:54:54;;;;;;;9.18;5.13;;;;;;;;;;6176235;28;20223;-48
2023/06/28 00:57:55;;;;;;;13.80;5.60;;;;;;;;;;6175192;28;20085;-50
2023/06/28 01:00:56;;;;;;;12.82;5.70;;;;;;;;;;6181541;28;20047;-50
2023/06/28 01:04:00;;;;;;;12.98;5.50;;;;;;;;;;6173499;28;20043;-52
2023/06/28 01:07:01;;;;;;;11.10;5.55;;;;;;;;;;6171403;28;20470;-49
2023/06/28 01:10:03;;;;;;;13.70;5.53;;;;;;;;;;6171404;28;20440;-49
2023/06/28 01:13:04;;;;;;;11.20;5.60;;;;;;;;;;6173796;28;20047;-49
2023/06/28 01:16:05;;;;;;;9.55;5.00;;;;;;;;;;6171885;28;20142;-52
2023/06/28 01:19:09;;;;;;;12.70;6.03;;;;;;;;;;6170455;28;20047;-51
2023/06/28 01:22:12;;;;;;;12.93;5.88;;;;;;;;;;6174770;28;20077;-50
2023/06/28 01:25:12;;;;;;;13.30;6.00;;;;;;;;;;6175102;28;20423;-49
2023/06/28 01:28:14;;;;;;;10.55;5.70;;;;;;;;;;6178159;28;20058;-50
2023/06/28 01:31:14;;;;;;;10.95;5.60;;;;;;;;;;6177661;28;20054;-51
2023/06/28 01:34:15;;;;;;;10.90;5.50;;;;;;;;;;6179997;28;20042;-50
2023/06/28 01:37:17;;;;;;;10.63;5.35;;;;;;;;;;6178639;28;20043;-50
2023/06/28 01:40:19;;;;;;;13.85;6.10;;;;;;;;;;6176038;28;20054;-52
2023/06/28 01:43:21;;;;;;;10.77;5.47;;;;;;;;;;6177432;28;20406;-50
2023/06/28 01:46:22;;;;;;;11.90;5.90;;;;;;;;;;6179131;28;20047;-49
2023/06/28 01:49:25;;;;;;;13.68;5.63;;;;;;;;;;6177929;28;20039;-48
2023/06/28 01:52:26;;;;;;;11.93;5.65;;;;;;;;;;6176668;28;20078;-57
2023/06/28 01:55:27;;;;;;;13.48;6.22;;;;;;;;;;6176583;28;20072;-49
2023/06/28 01:58:27;;;;;;;12.38;6.25;;;;;;;;;;6184272;28;20509;-52
2023/06/28 02:01:28;;;;;;;10.00;5.32;;;;;;;;;;6175305;28;20145;-48
2023/06/28 02:04:29;;;;;;;13.68;6.82;;;;;;;;;;6183428;28;20070;-52
2023/06/28 02:07:29;;;;;;;14.55;7.07;;;;;;;;;;6177495;28;20133;-49
2023/06/28 02:10:30;;;;;;;16.30;7.03;;;;;;;;;;6178250;28;20120;-51
2023/06/28 02:13:30;;;;;;;15.27;7.00;;;;;;;;;;6177218;28;20161;-50
2023/06/28 02:16:31;;;;;;;14.48;7.97;;;;;;;;;;6176647;28;20154;-49
2023/06/28 02:19:33;;;;;;;15.45;7.60;;;;;;;;;;6175834;28;20051;-49
2023/06/28 02:22:34;;;;;;;;;;;;;;;;;;6178913;28;20097;-48
2023/06/28 02:25:34;;;;;;;16.48;8.07;;;;;;;;;;6176771;28;19926;-49
2023/06/28 02:28:35;;;;;;;18.95;8.30;;;;;;;;;;6177402;28;20447;-49
2023/06/28 02:31:35;;;;;;;16.30;8.43;;;;;;;;;;6175098;28;20058;-50
2023/06/28 02:34:36;;;;;;;18.10;8.07;;;;;;;;;;6174418;28;20154;-53
2023/06/28 02:37:36;;;;;;;17.30;8.90;;;;;;;;;;6175307;28;20042;-49
2023/06/28 02:40:37;;;;;;;15.05;8.13;;;;;;;;;;6173472;28;20141;-50
2023/06/28 02:43:38;;;;;;;18.55;9.15;;;;;;;;;;6176808;28;20046;-50
2023/06/28 02:46:38;;;;;;;16.98;8.15;;;;;;;;;;6177856;28;20086;-49
2023/06/28 02:49:39;;;;;;;18.50;8.40;;;;;;;;;;6174201;28;20132;-49
2023/06/28 02:52:40;;;;;;;17.75;8.15;;;;;;;;;;6175630;28;20046;-50
2023/06/28 02:55:40;;;;;;;17.50;8.68;;;;;;;;;;6174330;28;20240;-53
2023/06/28 02:58:42;;;;;;;15.40;8.60;;;;;;;;;;6173059;28;20066;-49
2023/06/28 03:01:42;;;;;;;20.57;8.33;;;;;;;;;;6175014;28;20565;-51
2023/06/28 03:04:43;;;;;;;19.35;9.02;;;;;;;;;;6175098;28;20386;-49
2023/06/28 03:07:44;;;;;;;20.60;9.63;;;;;;;;;;6174097;28;20442;-48
2023/06/28 03:10:45;;;;;;;19.08;9.30;;;;;;;;;;6173964;28;21078;-49
2023/06/28 03:13:45;;;;;;;19.75;9.05;;;;;;;;;;6174438;28;20050;-50
2023/06/28 03:16:46;;;;;;;22.98;9.95;;;;;;;;;;6173213;28;20085;-51
2023/06/28 03:19:46;;;;;;;19.95;9.70;;;;;;;;;;6171415;28;20057;-52
2023/06/28 03:22:47;;;;;;;21.45;9.80;;;;;;;;;;6175410;28;20181;-48
2023/06/28 03:25:48;;;;;;;22.50;9.63;;;;;;;;;;6184230;28;20097;-50
2023/06/28 03:28:48;;;;;;;17.83;9.25;;;;;;;;;;6180269;28;20090;-51
2023/06/28 03:31:49;;;;;;;20.17;10.13;;;;;;;;;;6181052;28;20508;-52
2023/06/28 03:34:51;;;;;;;20.10;11.13;;;;;;;;;;6189257;28;20133;-52
2023/06/28 03:37:53;;;;;;;24.40;10.80;;;;;;;;;;6174681;28;20050;-51
2023/06/28 03:40:54;;;;;;;20.65;11.32;;;;;;;;;;6172699;28;20411;-52
2023/06/28 03:43:55;;;;;;;28.05;11.88;;;;;;;;;;6176726;28;20049;-50
2023/06/28 03:46:55;;;;;;;28.48;10.95;;;;;;;;;;6178924;28;20050;-50
2023/06/28 03:49:56;;;;;;;20.42;9.77;;;;;;;;;;6175186;28;20623;-54
2023/06/28 03:52:56;;;;;;;19.00;9.27;;;;;;;;;;6174299;28;20496;-50
2023/06/28 03:55:57;;;;;;;19.02;8.30;;;;;;;;;;6174060;28;20054;-51
2023/06/28 03:58:58;;;;;;;20.15;7.88;;;;;;;;;;6173076;28;20074;-50
2023/06/28 04:05:56;;;;;;;17.17;7.63;;;;;;;;;;6177293;28;20069;-58
2023/06/28 04:08:56;;;;;;;15.90;8.30;;;;;;;;;;6175677;28;20061;-50
2023/06/28 04:11:57;;;;;;;17.73;7.80;;;;;;;;;;6172655;28;20122;-50
2023/06/28 04:14:58;;;;;;;18.40;8.52;;;;;;;;;;6173034;28;20047;-50
2023/06/28 04:17:58;;;;;;;16.77;7.55;;;;;;;;;;6175484;28;20049;-50
2023/06/28 04:20:59;;;;;;;17.85;8.60;;;;;;;;;;6172246;28;20074;-49
2023/06/28 04:24:00;;;;;;;17.70;8.35;;;;;;;;;;6171731;28;20058;-50
2023/06/28 04:27:01;;;;;;;19.23;10.25;;;;;;;;;;6174835;28;20164;-54
2023/06/28 04:30:02;;;;;;;17.67;8.77;;;;;;;;;;6175060;28;20043;-51
2023/06/28 04:33:04;;;;;;;17.80;9.35;;;;;;;;;;6170793;28;20529;-49
2023/06/28 04:36:05;;;;;;;14.57;8.32;;;;;;;;;;6169722;28;20073;-53
2023/06/28 04:39:06;;;;;;;17.48;8.70;;;;;;;;;;6173407;28;20525;-54
2023/06/28 04:42:07;;;;;;;18.33;8.82;;;;;;;;;;6173916;28;22117;-61
2023/06/28 04:45:09;;;;;;;18.85;8.25;;;;;;;;;;6171747;28;20039;-56
2023/06/28 04:48:10;;;;;;;15.85;8.63;;;;;;;;;;6173862;28;20051;-58
2023/06/28 04:51:10;;;;;;;15.75;8.30;;;;;;;;;;6173301;28;20049;-60
2023/06/28 04:54:11;;;;;;;19.67;8.23;;;;;;;;;;6172658;28;20089;-60
2023/06/28 04:57:13;;;;;;;17.33;8.32;;;;;;;;;;6180427;28;20121;-54
2023/06/28 05:00:14;;;;;;;16.52;7.85;;;;;;;;;;6174520;28;20081;-59
2023/06/28 05:03:15;;;;;;;18.95;8.77;;;;;;;;;;6174699;28;20382;-61
2023/06/28 05:06:16;;;;;;;15.02;8.07;;;;;;;;;;6170473;28;20050;-59
2023/06/28 05:09:17;;;;;;;15.65;7.22;;;;;;;;;;6170586;28;20086;-59
2023/06/28 05:12:18;;;;;;;15.93;7.30;;;;;;;;;;6168377;28;20126;-59
2023/06/28 05:15:19;;;;;;;14.27;6.30;;;;;;;;;;6164310;28;20043;-51
2023/06/28 05:18:20;;;;;;;13.02;6.57;;;;;;;;;;6170221;28;20043;-59
2023/06/28 05:21:21;;;;;;;12.77;5.88;;;;;;;;;;6171746;28;20062;-59
2023/06/28 05:24:21;;;;;;;13.23;5.95;;;;;;;;;;6170412;28;20509;-60
2023/06/28 05:27:22;;;;;;;16.20;5.90;;;;;;;;;;6171903;28;20047;-61
2023/06/28 05:30:23;;;;;;;11.65;5.35;;;;;;;;;;6166310;28;20046;-54
2023/06/28 05:33:24;;;;;;;12.48;5.47;;;;;;;;;;6169413;28;20034;-57
2023/06/28 05:36:25;;;;;;;11.57;5.75;;;;;;;;;;6172730;28;20170;-60
2023/06/28 05:39:25;;;;;;;10.75;5.15;;;;;;;;;;6170142;28;20042;-61
2023/06/28 05:42:26;;;;;;;12.75;5.70;;;;;;;;;;6168070;28;20158;-51
2023/06/28 05:45:28;;;;;;;11.77;6.20;;;;;;;;;;6169755;28;20054;-61
2023/06/28 05:48:32;;;;;;;13.38;6.13;;;;;;;;;;6170562;28;20050;-50
2023/06/28 05:51:34;;;;;;;13.70;6.22;;;;;;;;;;6172393;28;20466;-50
2023/06/28 05:54:34;;;;;;;12.48;5.85;;;;;;;;;;6171755;28;20089;-55
2023/06/28 05:57:36;;;;;;;14.25;6.22;;;;;;;;;;6170297;28;20474;-50
2023/06/28 06:00:37;;;;;;;;;;;;;;;;;;6171620;28;20108;-51
2023/06/28 06:03:37;;;;;;;15.60;5.97;;;;;;;;;;6170449;28;19930;-50
2023/06/28 06:06:38;;;;;;;15.20;6.88;;;;;;;;;;6167369;28;20085;-52
2023/06/28 06:09:39;;;;;;;8.60;5.65;;;;;;;;;;6173563;28;20081;-57
2023/06/28 06:12:40;;;;;;;10.75;6.15;;;;;;;;;;6173760;28;20664;-59
2023/06/28 06:15:40;;;;;;;12.63;6.20;;;;;;;;;;6177156;28;20104;-57
2023/06/28 06:18:41;;;;;;;15.90;6.43;;;;;;;;;;6177672;28;20061;-58
2023/06/28 06:21:41;;;;;;;15.45;6.18;;;;;;;;;;6176184;28;20057;-53
2023/06/28 06:24:42;;;;;;;14.57;5.82;;;;;;;;;;6189665;28;20483;-52
2023/06/28 06:27:43;;;;;;;11.43;5.55;;;;;;;;;;6191463;28;20047;-58
2023/06/28 06:30:43;;;;;;;13.55;6.28;;;;;;;;;;6176766;28;20056;-58
2023/06/28 06:33:44;;;;;;;19.92;7.03;;;;;;;;;;6175685;28;20046;-58
2023/06/28 06:36:45;;;;;;;19.27;5.93;;;;;;;;;;6177647;28;20058;-49
2023/06/28 06:39:46;;;;;;;12.43;6.28;;;;;;;;;;6174170;28;20538;-54
2023/06/28 06:55:57;;;;;;;15.70;6.55;;;;;;;;;;6337724;27;20396;-50
2023/06/28 06:58:57;;;;;;;11.57;6.10;;;;;;;;;;6321745;28;21804;-53
2023/06/28 07:01:58;;;;;;;10.03;5.57;;;;;;;;;;6316388;28;20051;-49
2023/06/28 07:04:59;;;;;;;15.70;6.22;;;;;;;;;;6315395;28;20052;-50
2023/06/28 07:07:59;;;;;;;12.03;6.77;;;;;;;;;;6320782;28;20050;-53
2023/06/28 07:11:00;;;;;;;15.35;6.13;;;;;;;;;;6317321;28;20125;-57
2023/06/28 07:14:00;;;;;;;15.37;5.93;;;;;;;;;;6317200;28;20387;-51
2023/06/28 07:17:01;;;;;;;17.40;6.53;;;;;;;;;;6336538;28;20044;-50
2023/06/28 07:20:02;;;;;;;13.65;6.43;;;;;;;;;;6329546;28;20465;-56
2023/06/28 07:23:03;;;;;;;11.25;5.60;;;;;;;;;;6320190;28;20159;-48
2023/06/28 07:26:03;;;;;;;9.68;6.07;;;;;;;;;;6320716;28;20040;-51
2023/06/28 07:29:04;;;;;;;13.95;6.60;;;;;;;;;;6319057;28;20196;-53
2023/06/28 07:32:05;;;;;;;13.55;6.82;;;;;;;;;;6318965;28;20047;-58
2023/06/28 07:35:06;;;;;;;12.20;6.77;;;;;;;;;;6321008;28;20131;-54
2023/06/28 07:38:07;;;;;;;10.50;6.10;;;;;;;;;;6320745;28;20402;-53
2023/06/28 07:41:07;;;;;;;18.10;6.55;;;;;;;;;;6320285;28;20059;-55
2023/06/28 07:44:08;;;;;;;13.50;6.40;;;;;;;;;;6318652;28;20039;-50
2023/06/28 07:47:08;;;;;;;13.80;6.55;;;;;;;;;;6319545;28;20417;-50
2023/06/28 07:50:09;;;;;;;12.25;6.50;;;;;;;;;;6318928;28;20036;-55
2023/06/28 07:53:10;;;;;;;15.00;7.40;;;;;;;;;;6318866;28;20090;-49
2023/06/28 07:56:11;;;;;;;15.60;7.17;;;;;;;;;;6310900;28;20044;-55
2023/06/28 07:59:11;;;;;;;17.13;7.30;;;;;;;;;;6302824;28;20448;-48
2023/06/28 08:02:12;;;;;;;16.98;6.63;;;;;;;;;;6301426;28;20128;-55
2023/06/28 08:05:13;;;;;;;21.17;7.73;;;;;;;;;;6300311;28;20072;-58
2023/06/28 08:08:13;;;;;;;15.27;7.30;;;;;;;;;;6301313;28;20044;-53
2023/06/28 08:11:14;;;;;;;15.27;7.70;;;;;;;;;;6297428;28;20516;-55
2023/06/28 08:14:14;;;;;;;15.85;6.93;;;;;;;;;;6296913;28;20091;-51
2023/06/28 08:17:15;;;;;;;15.00;7.10;;;;;;;;;;6301592;28;20044;-58
2023/06/28 08:20:17;;;;;;;16.37;7.13;;;;;;;;;;6300327;28;20340;-56
2023/06/28 08:23:18;;;;;;;17.48;6.63;;;;;;;;;;6299315;28;20040;-55
2023/06/28 08:26:19;;;;;;;17.63;5.67;;;;;;;;;;6305451;28;20036;-55
2023/06/28 08:29:20;;;;;;;10.13;6.10;;;;;;;;;;6300475;28;20051;-57
2023/06/28 08:32:21;;;;;;;9.50;5.33;;;;;;;;;;6297973;28;20052;-59
2023/06/28 08:35:22;;;;;;;10.20;5.28;;;;;;;;;;6301022;28;20387;-54
2023/06/28 08:38:22;;;;;;;12.95;6.10;;;;;;;;;;6299884;28;20044;-53
2023/06/28 08:41:24;;;;;;;14.53;5.40;;;;;;;;;;6305239;28;20549;-51
2023/06/28 08:44:26;;;;;;;9.50;5.30;;;;;;;;;;6301635;28;20053;-52
2023/06/28 08:47:29;;;;;;;;;;;;;;;;;;6305376;28;20414;-53
2023/06/28 08:50:30;;;;;;;11.43;5.30;;;;;;;;;;6302001;28;19928;-53
2023/06/28 08:53:31;;;;;;;14.65;5.47;;;;;;;;;;6296841;28;20048;-52
2023/06/28 08:56:32;;;;;;;10.13;4.97;;;;;;;;;;6301595;28;20144;-59
2023/06/28 08:59:32;;;;;;;10.53;4.53;;;;;;;;;;6300023;28;20047;-55
2023/06/28 09:02:35;;;;;;;12.27;4.70;;;;;;;;;;6297207;28;20047;-55
2023/06/28 09:05:36;;;;;;;9.35;4.60;;;;;;;;;;6301073;28;19967;-50
2023/06/28 09:08:37;;;;;;;13.30;5.20;;;;;;;;;;6299842;28;20093;-52
2023/06/28 09:11:38;;;;;;;10.73;5.45;;;;;;;;;;6303669;28;20543;-55
2023/06/28 09:14:39;;;;;;;11.97;4.90;;;;;;;;;;6297667;28;20326;-54
2023/06/28 09:17:40;;;;;;;8.27;4.80;;;;;;;;;;6300395;28;20511;-51
2023/06/28 09:20:48;;;;;;;14.00;4.77;;;;;;;;;;6300505;28;20474;-55
2023/06/28 09:23:49;;;;;;;12.68;4.88;;;;;;;;;;6298383;28;20079;-55
2023/06/28 09:26:50;;;;;;;10.17;4.93;;;;;;;;;;6302062;28;20048;-53
2023/06/28 09:30:00;;;;;;;10.93;4.33;;;;;;;;;;6302506;28;20094;-54
2023/06/28 09:33:04;;;;;;;9.40;3.72;;;;;;;;;;6299145;28;20048;-55
2023/06/28 09:36:04;;;;;;;9.90;3.80;;;;;;;;;;6298979;28;20086;-54
2023/06/28 09:39:05;;;;;;;7.50;3.50;;;;;;;;;;6300376;28;20439;-59
2023/06/28 09:42:06;;;;;;;11.25;4.10;;;;;;;;;;6298192;28;20059;-58
2023/06/28 09:45:07;;;;;;;8.97;5.07;;;;;;;;;;6299830;28;21407;-58
2023/06/28 09:48:08;;;;;;;13.13;5.22;;;;;;;;;;6298207;28;20080;-54
2023/06/28 09:51:10;;;;;;;16.70;4.97;;;;;;;;;;6297144;28;20084;-51
2023/06/28 09:54:13;;;;;;;7.20;3.92;;;;;;;;;;6299138;28;20139;-52
2023/06/28 09:57:15;;;;;;;10.55;4.47;;;;;;;;;;6299250;28;20040;-53
2023/06/28 10:00:17;;;;;;;10.18;4.18;;;;;;;;;;6299829;28;20036;-56
2023/06/28 10:03:21;;;;;;;8.52;4.10;;;;;;;;;;6295948;28;20097;-58
2023/06/28 10:06:22;;;;;;;9.05;4.32;;;;;;;;;;6297871;28;20127;-51
2023/06/28 10:09:24;;;;;;;12.73;4.63;;;;;;;;;;6300135;28;21040;-53
2023/06/28 10:12:26;;;;;;;8.32;4.32;;;;;;;;;;6298760;28;20498;-56
2023/06/28 10:15:34;;;;;;;10.10;4.50;;;;;;;;;;6297730;28;20040;-49
2023/06/28 10:18:34;;;;;;;14.77;5.03;;;;;;;;;;6300387;28;20399;-53
2023/06/28 10:21:37;;;;;;;11.70;5.20;;;;;;;;;;6300034;28;20131;-54
2023/06/28 10:24:38;;;;;;;16.90;8.75;;;;;;;;;;6298153;28;20132;-56
2023/06/28 10:27:39;;;;;;;12.80;6.10;;;;;;;;;;6299998;28;20047;-54
2023/06/28 10:30:40;;;;;;;13.73;6.37;;;;;;;;;;6299892;28;20040;-52
2023/06/28 10:33:41;;;;;;;12.13;6.22;;;;;;;;;;6297039;28;20079;-48
2023/06/28 10:36:42;;;;;;;13.33;5.97;;;;;;;;;;6296326;28;20044;-53
2023/06/28 10:39:42;;;;;;;14.20;6.57;;;;;;;;;;6299307;28;20046;-54
2023/06/28 10:42:44;;;;;;;12.37;5.93;;;;;;;;;;6299691;28;20130;-55
2023/06/28 10:45:45;;;;;;;;;;;;;;;;;;6297669;28;20548;-50
2023/06/28 10:48:46;;;;;;;13.93;6.40;;;;;;;;;;6301264;28;19924;-50
2023/06/28 10:51:49;;;;;;;17.30;6.57;;;;;;;;;;6301614;28;20040;-55
2023/06/28 10:54:49;;;;;;;15.38;7.10;;;;;;;;;;6298373;28;20146;-53
2023/06/28 10:58:07;;;;;;;17.70;8.07;;;;;;;;;;6297454;28;20044;-51
2023/06/28 11:01:13;;;;;;;23.95;7.00;;;;;;;;;;6297989;28;20083;-51
2023/06/28 11:04:22;;;;;;;18.05;6.93;;;;;;;;;;6304458;28;20052;-52
2023/06/28 11:07:27;;;;;;;14.82;7.18;;;;;;;;;;6302017;28;20048;-49
2023/06/28 11:10:37;;;;;;;14.82;7.60;;;;;;;;;;6299583;28;20135;-51
2023/06/28 11:13:42;;;;;;;12.30;7.07;;;;;;;;;;6300692;28;20486;-49
2023/06/28 11:16:42;;;;;;;17.48;7.40;;;;;;;;;;6300213;28;20509;-54
2023/06/28 11:19:44;;;;;;;12.50;7.32;;;;;;;;;;6295618;28;20089;-57
2023/06/28 11:22:49;;;;;;;16.25;8.25;;;;;;;;;;6297932;28;20656;-50
2023/06/28 11:26:06;;;;;;;19.75;7.57;;;;;;;;;;6300324;28;21281;-49
2023/06/28 11:29:18;;;;;;;14.77;8.20;;;;;;;;;;6297518;28;20074;-60
2023/06/28 11:32:23;;;;;;;16.17;7.97;;;;;;;;;;6301754;28;20044;-52
2023/06/28 11:35:24;;;;;;;16.77;8.02;;;;;;;;;;6302751;28;20118;-52
2023/06/28 11:38:25;;;;;;;15.70;7.70;;;;;;;;;;6300760;28;20521;-54
2023/06/28 11:41:27;;;;;;;17.77;6.87;;;;;;;;;;6298261;28;20039;-52
2023/06/28 11:44:27;;;;;;;15.10;7.10;;;;;;;;;;6300960;28;20620;-57
2023/06/28 11:47:28;;;;;;;11.33;7.20;;;;;;;;;;6302810;28;20521;-51
2023/06/28 11:50:28;;;;;;;15.10;7.20;;;;;;;;;;6298520;28;20041;-55
2023/06/28 11:53:30;;;;;;;13.70;6.87;;;;;;;;;;6291424;28;20044;-50
2023/06/28 11:56:39;;;;;;;16.92;6.95;;;;;;;;;;6286350;28;20113;-49
2023/06/28 11:59:44;;;;;;;11.10;5.88;;;;;;;;;;6289967;28;20119;-49
2023/06/28 12:02:51;;;;;;;11.75;5.28;;;;;;;;;;6286966;28;20178;-49
2023/06/28 12:05:52;;;;;;;9.82;5.35;;;;;;;;;;6290990;28;20576;-47
2023/06/28 12:08:53;;;;;;;9.65;5.50;;;;;;;;;;6288977;28;20048;-52
2023/06/28 12:11:58;;;;;;;10.83;5.60;;;;;;;;;;6286455;28;20385;-51
2023/06/28 12:14:59;;;;;;;13.20;5.47;;;;;;;;;;6286583;28;20113;-48
2023/06/28 12:17:59;;;;;;;10.13;4.80;;;;;;;;;;6289467;28;20132;-48
2023/06/28 12:21:22;;;;;;;8.93;5.67;;;;;;;;;;6283957;28;20139;-47
2023/06/28 12:24:24;;;;;;;13.50;5.45;;;;;;;;;;6286363;28;20040;-47
2023/06/28 12:27:25;;;;;;;9.90;4.60;;;;;;;;;;6286845;28;20044;-48
2023/06/28 12:30:25;;;;;;;8.03;5.20;;;;;;;;;;6287889;28;20155;-49
2023/06/28 12:33:26;;;;;;;8.27;4.80;;;;;;;;;;6281989;28;20048;-49
2023/06/28 12:36:27;;;;;;;9.23;5.07;;;;;;;;;;6287647;28;20040;-50
2023/06/28 12:39:30;;;;;;;12.53;4.93;;;;;;;;;;6288086;28;20144;-48
2023/06/28 12:42:30;;;;;;;7.82;4.90;;;;;;;;;;6281995;28;21568;-48
2023/06/28 12:45:31;;;;;;;11.60;4.67;;;;;;;;;;6287332;28;20546;-48
2023/06/28 12:48:32;;;;;;;10.30;4.50;;;;;;;;;;6285901;28;20454;-50
2023/06/28 12:51:33;;;;;;;8.40;4.63;;;;;;;;;;6282794;28;20064;-52
2023/06/28 12:54:34;;;;;;;8.27;4.87;;;;;;;;;;6285774;28;20083;-51
2023/06/28 12:57:35;;;;;;;8.10;5.40;;;;;;;;;;6288043;28;20495;-50
2023/06/28 13:00:36;;;;;;;17.33;6.17;;;;;;;;;;6289920;28;20052;-49
2023/06/28 13:03:36;;;;;;;14.97;6.57;;;;;;;;;;6281275;28;20076;-50
2023/06/28 13:06:39;;;;;;;13.77;6.60;;;;;;;;;;6276697;28;20323;-48
2023/06/28 13:09:40;;;;;;;14.93;6.72;;;;;;;;;;6284376;28;20058;-53
2023/06/28 13:12:40;;;;;;;17.03;6.00;;;;;;;;;;6282346;28;20048;-50
2023/06/28 13:15:41;;;;;;;16.07;5.77;;;;;;;;;;6287485;28;20044;-52
2023/06/28 13:18:41;;;;;;;14.97;6.77;;;;;;;;;;6285139;28;21267;-51
2023/06/28 13:21:46;;;;;;;16.67;6.90;;;;;;;;;;6284689;28;20474;-50
2023/06/28 13:24:46;;;;;;;14.23;7.30;;;;;;;;;;6285781;28;20171;-49
2023/06/28 13:27:47;;;;;;;18.90;6.17;;;;;;;;;;6285108;28;21055;-51
2023/06/28 13:30:47;;;;;;;14.07;5.67;;;;;;;;;;6283226;28;20048;-51
2023/06/28 13:33:48;;;;;;;13.23;5.40;;;;;;;;;;6280785;28;20155;-51
2023/06/28 13:36:48;;;;;;;16.13;5.50;;;;;;;;;;6285445;28;20048;-51
2023/06/28 13:39:49;;;;;;;16.30;5.60;;;;;;;;;;6285053;28;20330;-49
2023/06/28 13:42:49;;;;;;;13.97;4.90;;;;;;;;;;6280273;28;20048;-48
2023/06/28 13:45:50;;;;;;;15.47;5.03;;;;;;;;;;6285296;28;20552;-52
2023/06/28 13:48:51;;;;;;;12.25;4.43;;;;;;;;;;6287047;28;20654;-52
2023/06/28 13:51:52;;;;;;;13.90;5.00;;;;;;;;;;6283020;28;20129;-48
2023/06/28 13:54:52;;;;;;;14.20;5.50;;;;;;;;;;6283234;28;20052;-51
2023/06/28 13:57:53;;;;;;;13.90;4.80;;;;;;;;;;6287536;28;20557;-54
2023/06/28 14:00:56;;;;;;;11.63;5.27;;;;;;;;;;6282330;28;20044;-55
2023/06/28 14:03:57;;;;;;;9.48;4.35;;;;;;;;;;6282273;28;20661;-54
2023/06/28 14:06:57;;;;;;;9.90;4.43;;;;;;;;;;6285882;28;20051;-51
2023/06/28 14:09:59;;;;;;;8.57;4.25;;;;;;;;;;6281580;28;20506;-53
2023/06/28 14:13:00;;;;;;;8.93;4.43;;;;;;;;;;6279968;28;20033;-54
2023/06/28 14:16:01;;;;;;;14.02;4.65;;;;;;;;;;6283583;28;20058;-53
2023/06/28 14:19:01;;;;;;;13.63;4.57;;;;;;;;;;6282665;28;20384;-50
2023/06/28 14:22:02;;;;;;;14.25;5.13;;;;;;;;;;6283569;28;20426;-53
2023/06/28 14:25:04;;;;;;;8.68;4.60;;;;;;;;;;6282764;28;20056;-51
2023/06/28 14:28:05;;;;;;;15.15;5.10;;;;;;;;;;6286713;28;20194;-51
2023/06/28 14:31:05;;;;;;;12.68;4.85;;;;;;;;;;6280921;28;20135;-58
2023/06/28 14:34:06;;;;;;;15.40;5.85;;;;;;;;;;6281588;28;20093;-57
2023/06/28 14:37:07;;;;;;;13.90;5.45;;;;;;;;;;6283502;28;20135;-54
2023/06/28 14:40:08;;;;;;;14.65;5.90;;;;;;;;;;6284022;28;21121;-59
2023/06/28 14:43:08;;;;;;;14.65;5.82;;;;;;;;;;6280146;28;20067;-59
2023/06/28 14:46:10;;;;;;;13.38;5.78;;;;;;;;;;6285085;28;20048;-51
2023/06/28 14:49:11;;;;;;;10.68;6.40;;;;;;;;;;6286447;28;20067;-52
2023/06/28 14:52:11;;;;;;;12.15;5.85;;;;;;;;;;6284099;28;20768;-55
2023/06/28 14:55:12;;;;;;;16.48;6.00;;;;;;;;;;6287408;28;20048;-55
2023/06/28 14:58:13;;;;;;;18.60;6.63;;;;;;;;;;6283202;28;20068;-55
2023/06/28 15:01:14;;;;;;;11.65;6.38;;;;;;;;;;6282596;28;20952;-56
2023/06/28 15:04:15;;;;;;;14.10;6.60;;;;;;;;;;6285382;28;20491;-56
2023/06/28 15:07:15;;;;;;;15.85;6.93;;;;;;;;;;6292441;28;20090;-57
2023/06/28 15:10:16;;;;;;;13.00;6.78;;;;;;;;;;6291841;28;20071;-61
2023/06/28 15:13:16;;;;;;;12.98;6.43;;;;;;;;;;6287772;28;20049;-61
2023/06/28 15:16:17;;;;;;;18.88;7.18;;;;;;;;;;6295834;28;20706;-59
2023/06/28 15:19:18;;;;;;;17.05;6.70;;;;;;;;;;6294103;28;20131;-60
2023/06/28 15:22:19;;;;;;;13.73;6.07;;;;;;;;;;6292570;28;20135;-58
2023/06/28 15:25:19;;;;;;;13.13;6.40;;;;;;;;;;6293223;28;20056;-60
2023/06/28 15:28:20;;;;;;;17.00;6.80;;;;;;;;;;6300481;28;20140;-60
2023/06/28 15:31:21;;;;;;;15.93;6.45;;;;;;;;;;6290893;28;20135;-61
2023/06/28 15:34:22;;;;;;;15.18;5.95;;;;;;;;;;6298804;28;20119;-60
2023/06/28 15:37:22;;;;;;;17.13;6.28;;;;;;;;;;6293062;28;20045;-61
2023/06/28 15:40:24;;;;;;;13.60;6.35;;;;;;;;;;6293116;28;20057;-60
2023/06/28 15:43:24;;;;;;;12.60;6.43;;;;;;;;;;6296748;28;20178;-61
2023/06/28 15:46:32;;;;;;;16.23;6.30;;;;;;;;;;6291758;28;20056;-59
2023/06/28 15:49:33;;;;;;;15.52;6.13;;;;;;;;;;6294074;28;20051;-60
2023/06/28 15:52:34;;;;;;;16.70;6.00;;;;;;;;;;6289134;28;20055;-59
2023/06/28 15:55:35;;;;;;;16.13;6.65;;;;;;;;;;6293892;28;20364;-59
2023/06/28 15:58:35;;;;;;;24.38;6.90;;;;;;;;;;6298581;28;20043;-53
2023/06/28 16:01:36;;;;;;;16.42;6.97;;;;;;;;;;6296623;28;20053;-59
2023/06/28 16:04:37;;;;;;;13.02;6.88;;;;;;;;;;6295116;28;20139;-60
2023/06/28 16:07:37;;;;;;;15.35;6.45;;;;;;;;;;6310189;28;20462;-60
2023/06/28 16:10:38;;;;;;;22.85;6.95;;;;;;;;;;6303875;28;20040;-60
2023/06/28 16:13:38;;;;;;;15.50;7.00;;;;;;;;;;6316092;28;20463;-58
2023/06/28 16:16:42;;;;;;;14.07;7.13;;;;;;;;;;6316586;28;20136;-56
2023/06/28 16:19:43;;;;;;;18.02;7.00;;;;;;;;;;6317630;28;20052;-58
2023/06/28 16:22:43;;;;;;;18.98;7.50;;;;;;;;;;6316400;28;20062;-60
2023/06/28 16:25:44;;;;;;;14.07;6.90;;;;;;;;;;6316286;28;20518;-60
2023/06/28 16:28:45;;;;;;;20.10;8.27;;;;;;;;;;6317113;28;20076;-59
2023/06/28 16:31:46;;;;;;;21.00;7.93;;;;;;;;;;6316662;28;20583;-60
2023/06/28 16:34:46;;;;;;;14.20;7.30;;;;;;;;;;6313017;28;20423;-60
2023/06/28 16:37:47;;;;;;;17.38;7.82;;;;;;;;;;6313552;28;20051;-59
2023/06/28 16:40:49;;;;;;;17.75;7.43;;;;;;;;;;6315205;28;20052;-58
2023/06/28 16:43:50;;;;;;;22.58;8.27;;;;;;;;;;6313877;28;20044;-59
2023/06/28 16:46:50;;;;;;;18.60;7.75;;;;;;;;;;6315055;28;20055;-60
2023/06/28 16:49:51;;;;;;;15.02;7.85;;;;;;;;;;6316914;28;20076;-59
2023/06/28 16:52:51;;;;;;;14.88;7.90;;;;;;;;;;6316234;28;20051;-58
2023/06/28 16:55:52;;;;;;;23.13;7.82;;;;;;;;;;6312692;28;20134;-60
2023/06/28 16:58:52;;;;;;;16.83;7.55;;;;;;;;;;6316628;28;20056;-60
2023/06/28 17:01:56;;;;;;;16.48;8.13;;;;;;;;;;6316097;28;20075;-59
2023/06/28 17:04:56;;;;;;;19.38;7.65;;;;;;;;;;6315400;28;20040;-60
2023/06/28 17:07:57;;;;;;;16.15;8.27;;;;;;;;;;6315086;28;20068;-54
2023/06/28 17:10:58;;;;;;;16.83;7.60;;;;;;;;;;6313233;28;20509;-51
2023/06/28 17:13:58;;;;;;;15.05;7.35;;;;;;;;;;6315291;28;20525;-53
2023/06/28 17:16:59;;;;;;;15.13;7.45;;;;;;;;;;6315585;28;20044;-55
2023/06/28 17:20:00;;;;;;;16.63;7.28;;;;;;;;;;6315712;28;20469;-57
2023/06/28 17:23:00;;;;;;;14.25;6.60;;;;;;;;;;6313041;28;20040;-53
2023/06/28 17:26:02;;;;;;;18.80;8.40;;;;;;;;;;6309360;28;20133;-57
2023/06/28 17:29:03;;;;;;;16.85;7.55;;;;;;;;;;6310894;28;20036;-50
2023/06/28 17:32:04;;;;;;;16.23;7.82;;;;;;;;;;6312380;28;20081;-50
2023/06/28 17:35:05;;;;;;;18.15;7.43;;;;;;;;;;6307729;28;20038;-50
2023/06/28 17:38:07;;;;;;;;;;;;;;;;;;6312947;28;20051;-53
2023/06/28 17:41:11;;;;;;;14.48;7.05;;;;;;;;;;6312282;28;19928;-49
2023/06/28 17:44:11;;;;;;;16.73;7.95;;;;;;;;;;6311883;28;20150;-55
2023/06/28 17:47:12;;;;;;;18.52;8.50;;;;;;;;;;6312521;28;20086;-53
2023/06/28 17:50:13;;;;;;;17.65;8.20;;;;;;;;;;6310328;28;20888;-54
2023/06/28 17:53:13;;;;;;;20.90;8.05;;;;;;;;;;6311748;28;20381;-51
2023/06/28 17:56:14;;;;;;;15.07;8.48;;;;;;;;;;6313405;28;20036;-52
2023/06/28 17:59:14;;;;;;;16.88;7.75;;;;;;;;;;6314162;28;20040;-50
2023/06/28 18:02:15;;;;;;;19.08;7.88;;;;;;;;;;6310862;28;20131;-50
2023/06/28 18:05:15;;;;;;;13.98;7.85;;;;;;;;;;6312910;28;20490;-51
2023/06/28 18:08:16;;;;;;;17.42;7.70;;;;;;;;;;6308446;28;20149;-56
2023/06/28 18:11:17;;;;;;;17.98;7.40;;;;;;;;;;6304548;28;20116;-60